createdAt,value
2016-12-23T18:59:32.465Z,17.51
2016-12-23T19:00:41.838Z,17.14
2016-12-23T19:01:50.839Z,16.82
2016-12-23T19:02:59.860Z,16.57
2016-12-23T19:04:08.850Z,16.38
2016-12-23T19:05:18.164Z,16.02
2016-12-23T19:06:27.456Z,15.76
2016-12-23T19:07:36.484Z,15.64
2016-12-23T19:08:45.163Z,15.39
2016-12-23T19:09:54.171Z,15.35
2016-12-23T19:11:03.879Z,15.2
2016-12-23T19:12:13.514Z,14.96
2016-12-23T19:13:22.815Z,14.77
2016-12-23T19:14:31.528Z,14.65
2016-12-23T19:15:40.237Z,14.42
2016-12-23T19:16:49.994Z,14.37
2016-12-23T19:17:58.671Z,14.32
2016-12-23T19:19:07.361Z,14.27
2016-12-23T19:20:16.364Z,14.21
2016-12-23T19:21:25.044Z,14.15
2016-12-23T19:22:34.022Z,14.12
2016-12-23T19:23:43.027Z,14
2016-12-23T19:24:51.716Z,13.85
2016-12-23T19:26:00.400Z,13.89
2016-12-23T19:27:10.018Z,13.87
2016-12-23T19:28:19.055Z,13.82
2016-12-23T19:29:27.763Z,13.84
2016-12-23T19:30:37.054Z,13.7
2016-12-23T19:31:46.372Z,13.78
2016-12-23T19:32:55.052Z,13.7
2016-12-23T19:34:04.499Z,13.69
2016-12-23T19:35:13.488Z,13.6
2016-12-23T19:36:23.097Z,13.59
2016-12-23T19:37:32.095Z,13.54
2016-12-23T19:38:41.092Z,13.51
2016-12-23T19:39:50.543Z,13.52
2016-12-23T19:40:59.828Z,13.38
2016-12-23T19:42:09.116Z,13.46
2016-12-23T19:43:18.412Z,13.42
2016-12-23T19:44:27.087Z,13.28
2016-12-23T19:45:36.067Z,13.33
2016-12-23T19:46:44.740Z,13.17
2016-12-23T19:47:53.424Z,13.17
2016-12-23T19:49:02.121Z,13.11
2016-12-23T19:50:10.809Z,13.05
2016-12-23T19:51:19.492Z,13.01
2016-12-23T19:52:28.165Z,13
2016-12-23T19:53:37.148Z,12.97
2016-12-23T19:54:46.144Z,12.95
2016-12-23T19:55:55.137Z,12.87
2016-12-23T19:57:04.796Z,12.86
2016-12-23T19:58:13.770Z,12.77
2016-12-23T19:59:23.089Z,12.78
2016-12-23T20:00:31.763Z,12.72
2016-12-23T20:01:40.437Z,12.71
2016-12-23T20:02:49.719Z,12.72
2016-12-23T20:03:58.394Z,12.72
2016-12-23T20:05:07.078Z,12.6
2016-12-23T20:06:15.764Z,12.64
2016-12-23T20:07:25.049Z,12.57
2016-12-23T20:08:34.644Z,12.57
2016-12-23T20:09:43.628Z,12.62
2016-12-23T20:10:52.612Z,12.64
2016-12-23T20:12:01.596Z,12.59
2016-12-23T20:13:10.583Z,12.56
2016-12-23T20:14:20.241Z,12.62
2016-12-23T20:15:28.925Z,12.67
2016-12-23T20:16:37.604Z,12.49
2016-12-23T20:17:46.620Z,12.47
2016-12-23T20:18:55.606Z,12.5
2016-12-23T20:20:04.941Z,12.56
2016-12-23T20:21:13.615Z,12.52
2016-12-23T20:22:22.911Z,12.54
2016-12-23T20:23:31.900Z,12.41
2016-12-23T20:24:40.896Z,12.46
2016-12-23T20:25:49.578Z,12.42
2016-12-23T20:26:59.178Z,12.39
2016-12-23T20:28:07.856Z,12.38
2016-12-23T20:29:16.837Z,12.42
2016-12-23T20:30:26.759Z,12.35
2016-12-23T20:31:36.041Z,12.28
2016-12-23T20:32:45.038Z,12.35
2016-12-23T20:33:53.710Z,12.31
2016-12-23T20:35:02.691Z,12.41
2016-12-23T20:36:11.665Z,12.72
2016-12-23T20:37:20.975Z,12.95
2016-12-23T20:38:29.976Z,13.17
2016-12-23T20:39:39.297Z,13.46
2016-12-23T20:40:48.624Z,13.77
2016-12-23T20:41:57.608Z,14.1
2016-12-23T20:43:06.597Z,14.24
2016-12-23T20:44:15.593Z,14.52
2016-12-23T20:45:24.265Z,14.73
2016-12-23T20:46:33.242Z,15.03
2016-12-23T20:47:42.237Z,15.13
2016-12-23T20:48:50.920Z,15.38
2016-12-23T20:50:00.211Z,15.64
2016-12-23T20:51:08.883Z,15.67
2016-12-23T20:52:18.486Z,15.89
2016-12-23T20:53:27.466Z,15.93
2016-12-23T20:54:36.812Z,16.15
2016-12-23T20:55:45.507Z,16.28
2016-12-23T20:56:54.797Z,16.38
2016-12-23T20:58:03.480Z,16.48
2016-12-23T20:59:12.163Z,16.67
2016-12-23T21:00:21.165Z,16.78
2016-12-23T21:01:30.184Z,16.81
2016-12-23T21:02:38.894Z,16.96
2016-12-23T21:03:47.609Z,17.07
2016-12-23T21:04:56.649Z,17.16
2016-12-23T21:06:06.127Z,17.18
2016-12-23T21:07:14.851Z,17.26
2016-12-23T21:08:23.890Z,17.34
2016-12-23T21:09:32.603Z,17.49
2016-12-23T21:10:41.331Z,17.43
2016-12-23T21:11:50.639Z,17.58
2016-12-23T21:12:59.649Z,17.7
2016-12-23T21:14:08.697Z,17.78
2016-12-23T21:15:17.992Z,17.87
2016-12-23T21:16:27.043Z,17.82
2016-12-23T21:17:37.010Z,17.92
2016-12-23T21:18:46.341Z,17.99
2016-12-23T21:19:55.714Z,17.97
2016-12-23T21:21:04.417Z,17.99
2016-12-23T21:22:13.493Z,18.08
2016-12-23T21:23:22.372Z,18.15
2016-12-23T21:24:31.096Z,18.18
2016-12-23T21:25:40.157Z,18.21
2016-12-23T21:26:48.968Z,18.26
2016-12-23T21:27:58.310Z,18.33
2016-12-23T21:29:07.938Z,18.29
2016-12-23T21:30:16.979Z,18.45
2016-12-23T21:31:26.062Z,18.44
2016-12-23T21:32:35.131Z,18.47
2016-12-23T21:33:44.257Z,18.57
2016-12-23T21:34:53.356Z,18.58
2016-12-23T21:36:02.100Z,18.57
2016-12-23T21:37:11.821Z,18.69
2016-12-23T21:38:20.821Z,18.65
2016-12-23T21:39:30.176Z,18.7
2016-12-23T21:40:39.635Z,18.76
2016-12-23T21:41:48.702Z,18.69
2016-12-23T21:42:58.035Z,18.8
2016-12-23T21:44:07.065Z,18.78
2016-12-23T21:45:16.093Z,18.76
2016-12-23T21:46:24.794Z,18.87
2016-12-23T21:47:33.828Z,18.85
2016-12-23T21:48:43.145Z,18.85
2016-12-23T21:49:52.806Z,18.9
2016-12-23T21:51:01.860Z,18.92
2016-12-23T21:52:11.223Z,18.87
2016-12-23T21:53:20.270Z,18.88
2016-12-23T21:54:29.340Z,18.94
2016-12-23T21:55:38.990Z,18.99
2016-12-23T21:56:48.592Z,18.95
2016-12-23T21:57:57.425Z,18.94
2016-12-23T21:59:06.417Z,18.95
2016-12-23T22:00:15.401Z,18.98
2016-12-23T22:01:24.691Z,18.99
2016-12-23T22:02:33.373Z,19.07
2016-12-23T22:03:42.353Z,19.06
2016-12-23T22:04:51.046Z,19.08
2016-12-23T22:06:00.345Z,19.08
2016-12-23T22:07:09.363Z,19.13
2016-12-23T22:08:18.673Z,19.11
2016-12-23T22:09:27.806Z,19.16
2016-12-23T22:10:36.513Z,19.13
2016-12-23T22:11:45.805Z,19.21
2016-12-23T22:12:54.490Z,19.16
2016-12-23T22:14:03.484Z,19.18
2016-12-23T22:15:12.779Z,19.1
2016-12-23T22:16:21.450Z,19.25
2016-12-23T22:17:30.743Z,19.22
2016-12-23T22:18:39.729Z,19.21
2016-12-23T22:19:48.726Z,19.18
2016-12-23T22:20:57.502Z,19.25
2016-12-23T22:22:06.799Z,19.23
2016-12-23T22:23:15.478Z,19.26
2016-12-23T22:24:24.778Z,19.26
2016-12-23T22:25:33.457Z,19.23
2016-12-23T22:26:42.604Z,19.26
2016-12-23T22:27:51.905Z,19.26
2016-12-23T22:29:00.888Z,19.25
2016-12-23T22:30:10.180Z,19.37
2016-12-23T22:31:19.791Z,19.39
2016-12-23T22:32:28.780Z,19.36
2016-12-23T22:33:37.770Z,19.4
2016-12-23T22:34:47.070Z,19.33
2016-12-23T22:35:55.762Z,19.32
2016-12-23T22:37:04.756Z,19.31
2016-12-23T22:38:13.755Z,19.33
2016-12-23T22:39:23.062Z,19.29
2016-12-23T22:40:32.053Z,19.36
2016-12-23T22:41:41.372Z,19.37
2016-12-23T22:42:50.677Z,19.36
2016-12-23T22:43:59.658Z,19.37
2016-12-23T22:45:08.355Z,19.32
2016-12-23T22:46:17.653Z,19.37
2016-12-23T22:47:26.645Z,19.37
2016-12-23T22:48:35.939Z,19.37
2016-12-23T22:49:45.088Z,19.41
2016-12-23T22:50:54.392Z,19.33
2016-12-23T22:52:03.091Z,19.46
2016-12-23T22:53:12.156Z,19.39
2016-12-23T22:54:21.759Z,19.47
2016-12-23T22:55:30.457Z,19.5
2016-12-23T22:56:39.449Z,19.4
2016-12-23T22:57:48.131Z,19.48
2016-12-23T22:58:57.131Z,19.43
2016-12-23T23:00:06.117Z,19.51
2016-12-23T23:01:15.144Z,19.41
2016-12-23T23:02:24.130Z,19.44
2016-12-23T23:03:32.814Z,19.47
2016-12-23T23:04:42.426Z,19.55
2016-12-23T23:05:51.410Z,19.47
2016-12-23T23:07:00.244Z,19.48
2016-12-23T23:08:09.233Z,19.51
2016-12-23T23:09:17.938Z,19.51
2016-12-23T23:10:26.917Z,19.54
2016-12-23T23:11:35.905Z,19.48
2016-12-23T23:12:45.203Z,19.54
2016-12-23T23:13:53.878Z,19.5
2016-12-23T23:15:02.558Z,19.48
2016-12-23T23:16:12.209Z,19.54
2016-12-23T23:17:20.901Z,19.47
2016-12-23T23:18:30.199Z,19.5
2016-12-23T23:19:39.193Z,19.47
2016-12-23T23:20:48.487Z,19.46
2016-12-23T23:21:57.179Z,19.5
2016-12-23T23:23:05.862Z,19.51
2016-12-23T23:24:15.027Z,19.48
2016-12-23T23:25:24.019Z,19.48
2016-12-23T23:26:33.035Z,19.51
2016-12-23T23:27:42.042Z,19.51
2016-12-23T23:28:50.726Z,19.56
2016-12-23T23:29:59.726Z,19.56
2016-12-23T23:31:09.037Z,19.46
2016-12-23T23:39:54.934Z,19.56
2016-12-23T23:41:04.233Z,19.56
2016-12-23T23:42:13.552Z,19.48
2016-12-23T23:43:23.011Z,19.48
2016-12-23T23:44:32.317Z,19.56
2016-12-23T23:45:41.308Z,19.54
2016-12-23T23:46:50.291Z,19.56
2016-12-23T23:47:59.280Z,19.5
2016-12-23T23:49:08.114Z,19.51
2016-12-23T23:50:17.405Z,19.51
2016-12-23T23:51:26.431Z,19.54
2016-12-23T23:52:35.435Z,19.56
2016-12-23T23:53:44.439Z,19.48
2016-12-23T23:54:54.086Z,19.55
2016-12-23T23:56:02.775Z,19.54
2016-12-23T23:57:11.776Z,19.58
2016-12-23T23:58:20.464Z,19.55
2016-12-23T23:59:29.460Z,19.55
